sensor_id;sensor_type;location;lat;lon;timestamp;pressure;altitude;pressure_sealevel;temperature;humidity
27294;BME280;14785;52.556;13.430;2022-08-01T00:00:23;100390.59;;;22.42;100.00
27294;BME280;14785;52.556;13.430;2022-08-01T00:02:48;100377.16;;;22.87;100.00
27294;BME280;14785;52.556;13.430;2022-08-01T00:05:14;100373.13;;;22.62;100.00
27294;BME280;14785;52.556;13.430;2022-08-01T00:07:39;100378.00;;;22.48;100.00
27294;BME280;14785;52.556;13.430;2022-08-01T00:10:08;100389.66;;;22.48;100.00
27294;BME280;14785;52.556;13.430;2022-08-01T00:12:34;100381.69;;;22.30;100.00
27294;BME280;14785;52.556;13.430;2022-08-01T00:14:59;100399.16;;;22.11;100.00
27294;BME280;14785;52.556;13.430;2022-08-01T00:17:25;100395.41;;;21.89;100.00
27294;BME280;14785;52.556;13.430;2022-08-01T00:19:50;100399.53;;;22.15;100.00
27294;BME280;14785;52.556;13.430;2022-08-01T00:22:16;100407.06;;;22.13;100.00
27294;BME280;14785;52.556;13.430;2022-08-01T00:24:42;100403.41;;;22.07;100.00
27294;BME280;14785;52.556;13.430;2022-08-01T00:27:07;100397.66;;;21.92;100.00
27294;BME280;14785;52.556;13.430;2022-08-01T00:29:32;100405.53;;;21.82;100.00
27294;BME280;14785;52.556;13.430;2022-08-01T00:31:58;100406.81;;;21.80;100.00
27294;BME280;14785;52.556;13.430;2022-08-01T00:34:23;100404.19;;;21.73;100.00
27294;BME280;14785;52.556;13.430;2022-08-01T00:36:48;100407.25;;;21.54;100.00
27294;BME280;14785;52.556;13.430;2022-08-01T00:39:14;100407.69;;;21.39;100.00
27294;BME280;14785;52.556;13.430;2022-08-01T00:41:39;100401.25;;;21.40;100.00
27294;BME280;14785;52.556;13.430;2022-08-01T00:44:05;100414.63;;;21.35;100.00
27294;BME280;14785;52.556;13.430;2022-08-01T00:46:31;100421.44;;;21.26;100.00
27294;BME280;14785;52.556;13.430;2022-08-01T00:48:58;100421.22;;;21.39;100.00
27294;BME280;14785;52.556;13.430;2022-08-01T00:51:24;100410.22;;;21.52;100.00
27294;BME280;14785;52.556;13.430;2022-08-01T00:53:50;100410.59;;;22.02;100.00
27294;BME280;14785;52.556;13.430;2022-08-01T00:56:16;100409.91;;;21.83;100.00
27294;BME280;14785;52.556;13.430;2022-08-01T00:58:42;100414.63;;;21.35;100.00
27294;BME280;14785;52.556;13.430;2022-08-01T01:01:08;100414.06;;;21.45;100.00
27294;BME280;14785;52.556;13.430;2022-08-01T01:03:34;100409.25;;;21.58;100.00
27294;BME280;14785;52.556;13.430;2022-08-01T01:06:25;100397.19;;;21.95;100.00
27294;BME280;14785;52.556;13.430;2022-08-01T01:09:33;100387.81;;;22.37;100.00
27294;BME280;14785;52.556;13.430;2022-08-01T01:14:47;100386.91;;;22.20;100.00
27294;BME280;14785;52.556;13.430;2022-08-01T01:17:19;100387.84;;;21.91;100.00
27294;BME280;14785;52.556;13.430;2022-08-01T01:19:48;100386.47;;;21.89;100.00
27294;BME280;14785;52.556;13.430;2022-08-01T01:22:21;100388.47;;;21.93;100.00
27294;BME280;14785;52.556;13.430;2022-08-01T01:25:08;100386.19;;;21.67;100.00
27294;BME280;14785;52.556;13.430;2022-08-01T01:28:33;100386.44;;;22.00;100.00
27294;BME280;14785;52.556;13.430;2022-08-01T01:30:38;100395.00;;;21.63;100.00
27294;BME280;14785;52.556;13.430;2022-08-01T01:33:07;100394.78;;;21.53;100.00
27294;BME280;14785;52.556;13.430;2022-08-01T01:35:36;100394.94;;;21.17;100.00
27294;BME280;14785;52.556;13.430;2022-08-01T01:38:15;100403.59;;;21.48;100.00
27294;BME280;14785;52.556;13.430;2022-08-01T01:40:43;100400.25;;;20.94;100.00
27294;BME280;14785;52.556;13.430;2022-08-01T01:43:10;100403.47;;;21.02;100.00
27294;BME280;14785;52.556;13.430;2022-08-01T01:45:37;100400.00;;;21.13;100.00
27294;BME280;14785;52.556;13.430;2022-08-01T01:48:04;100392.06;;;21.64;100.00
27294;BME280;14785;52.556;13.430;2022-08-01T01:50:32;100399.66;;;21.21;100.00
27294;BME280;14785;52.556;13.430;2022-08-01T01:52:57;100402.56;;;21.08;100.00
27294;BME280;14785;52.556;13.430;2022-08-01T01:55:25;100399.59;;;20.98;100.00
27294;BME280;14785;52.556;13.430;2022-08-01T01:57:52;100402.94;;;20.64;100.00
27294;BME280;14785;52.556;13.430;2022-08-01T02:00:19;100394.22;;;21.10;100.00
27294;BME280;14785;52.556;13.430;2022-08-01T02:02:45;100408.47;;;20.69;100.00
27294;BME280;14785;52.556;13.430;2022-08-01T02:05:12;100410.19;;;20.34;100.00
27294;BME280;14785;52.556;13.430;2022-08-01T02:07:39;100420.66;;;20.24;100.00
27294;BME280;14785;52.556;13.430;2022-08-01T02:10:06;100438.09;;;20.28;100.00
27294;BME280;14785;52.556;13.430;2022-08-01T02:12:33;100429.66;;;20.18;100.00
27294;BME280;14785;52.556;13.430;2022-08-01T02:15:00;100422.63;;;20.35;100.00
27294;BME280;14785;52.556;13.430;2022-08-01T02:17:26;100428.94;;;20.29;100.00
27294;BME280;14785;52.556;13.430;2022-08-01T02:19:53;100429.66;;;20.36;100.00
27294;BME280;14785;52.556;13.430;2022-08-01T02:22:32;100441.25;;;20.25;100.00
27294;BME280;14785;52.556;13.430;2022-08-01T02:25:12;100432.41;;;20.11;100.00
27294;BME280;14785;52.556;13.430;2022-08-01T02:27:47;100437.00;;;20.11;100.00
27294;BME280;14785;52.556;13.430;2022-08-01T02:30:16;100441.19;;;20.07;100.00
27294;BME280;14785;52.556;13.430;2022-08-01T02:32:51;100448.22;;;20.14;100.00
27294;BME280;14785;52.556;13.430;2022-08-01T02:35:26;100436.81;;;20.48;100.00
27294;BME280;14785;52.556;13.430;2022-08-01T02:37:52;100429.03;;;20.70;100.00
27294;BME280;14785;52.556;13.430;2022-08-01T02:40:19;100428.78;;;20.42;100.00
27294;BME280;14785;52.556;13.430;2022-08-01T02:42:50;100442.13;;;20.19;100.00
27294;BME280;14785;52.556;13.430;2022-08-01T02:45:18;100448.13;;;20.21;100.00
27294;BME280;14785;52.556;13.430;2022-08-01T02:47:44;100449.34;;;20.25;100.00
27294;BME280;14785;52.556;13.430;2022-08-01T02:50:12;100443.06;;;20.31;100.00
27294;BME280;14785;52.556;13.430;2022-08-01T02:52:40;100441.09;;;20.56;100.00
27294;BME280;14785;52.556;13.430;2022-08-01T02:55:08;100445.88;;;20.36;100.00
27294;BME280;14785;52.556;13.430;2022-08-01T02:57:35;100455.19;;;20.22;100.00
27294;BME280;14785;52.556;13.430;2022-08-01T03:00:03;100462.91;;;20.18;100.00
27294;BME280;14785;52.556;13.430;2022-08-01T03:02:30;100456.41;;;20.62;100.00
27294;BME280;14785;52.556;13.430;2022-08-01T03:04:57;100457.91;;;20.40;100.00
27294;BME280;14785;52.556;13.430;2022-08-01T03:07:23;100460.97;;;20.01;100.00
27294;BME280;14785;52.556;13.430;2022-08-01T03:09:51;100475.69;;;20.05;100.00
27294;BME280;14785;52.556;13.430;2022-08-01T03:12:20;100469.63;;;20.09;100.00
27294;BME280;14785;52.556;13.430;2022-08-01T03:14:49;100472.91;;;20.36;100.00
27294;BME280;14785;52.556;13.430;2022-08-01T03:17:17;100474.91;;;20.22;100.00
27294;BME280;14785;52.556;13.430;2022-08-01T03:19:45;100476.84;;;20.15;100.00
27294;BME280;14785;52.556;13.430;2022-08-01T03:22:12;100468.31;;;20.18;100.00
27294;BME280;14785;52.556;13.430;2022-08-01T03:24:40;100473.34;;;20.33;100.00
27294;BME280;14785;52.556;13.430;2022-08-01T03:27:07;100472.28;;;20.88;100.00
27294;BME280;14785;52.556;13.430;2022-08-01T03:29:34;100465.41;;;20.56;100.00
27294;BME280;14785;52.556;13.430;2022-08-01T03:32:01;100474.13;;;20.40;100.00
27294;BME280;14785;52.556;13.430;2022-08-01T03:34:27;100472.00;;;20.78;100.00
27294;BME280;14785;52.556;13.430;2022-08-01T03:37:07;100479.13;;;20.36;100.00
27294;BME280;14785;52.556;13.430;2022-08-01T03:39:46;100478.44;;;20.23;100.00
27294;BME280;14785;52.556;13.430;2022-08-01T03:42:17;100479.72;;;20.20;100.00
27294;BME280;14785;52.556;13.430;2022-08-01T03:44:49;100480.72;;;20.44;100.00
27294;BME280;14785;52.556;13.430;2022-08-01T03:47:18;100480.44;;;20.52;100.00
27294;BME280;14785;52.556;13.430;2022-08-01T03:49:48;100489.69;;;20.20;100.00
27294;BME280;14785;52.556;13.430;2022-08-01T03:52:15;100492.63;;;20.18;100.00
27294;BME280;14785;52.556;13.430;2022-08-01T03:54:46;100484.03;;;20.46;100.00
27294;BME280;14785;52.556;13.430;2022-08-01T03:57:12;100481.63;;;20.74;100.00
27294;BME280;14785;52.556;13.430;2022-08-01T03:59:39;100485.03;;;20.27;100.00
27294;BME280;14785;52.556;13.430;2022-08-01T04:02:06;100493.63;;;20.42;100.00
27294;BME280;14785;52.556;13.430;2022-08-01T04:04:32;100497.19;;;20.18;100.00
27294;BME280;14785;52.556;13.430;2022-08-01T04:06:58;100490.13;;;20.17;100.00
27294;BME280;14785;52.556;13.430;2022-08-01T04:09:29;100498.44;;;20.40;100.00
27294;BME280;14785;52.556;13.430;2022-08-01T04:11:55;100502.31;;;20.26;100.00
27294;BME280;14785;52.556;13.430;2022-08-01T04:14:21;100487.59;;;20.94;100.00
27294;BME280;14785;52.556;13.430;2022-08-01T04:16:46;100488.38;;;20.65;100.00
27294;BME280;14785;52.556;13.430;2022-08-01T04:19:12;100494.41;;;20.49;100.00
27294;BME280;14785;52.556;13.430;2022-08-01T04:21:37;100493.31;;;20.32;100.00
27294;BME280;14785;52.556;13.430;2022-08-01T04:24:14;100490.41;;;20.69;100.00
27294;BME280;14785;52.556;13.430;2022-08-01T04:26:41;100497.81;;;20.38;100.00
27294;BME280;14785;52.556;13.430;2022-08-01T04:29:09;100507.53;;;20.21;100.00
27294;BME280;14785;52.556;13.430;2022-08-01T04:31:36;100498.63;;;20.20;100.00
27294;BME280;14785;52.556;13.430;2022-08-01T04:34:05;100499.47;;;20.39;100.00
27294;BME280;14785;52.556;13.430;2022-08-01T04:36:33;100507.53;;;20.21;100.00
27294;BME280;14785;52.556;13.430;2022-08-01T04:39:00;100508.81;;;20.18;100.00
27294;BME280;14785;52.556;13.430;2022-08-01T04:41:26;100508.78;;;20.61;100.00
27294;BME280;14785;52.556;13.430;2022-08-01T04:43:52;100513.59;;;20.77;100.00
27294;BME280;14785;52.556;13.430;2022-08-01T04:46:19;100511.47;;;20.79;100.00
27294;BME280;14785;52.556;13.430;2022-08-01T04:48:45;100516.31;;;20.59;100.00
27294;BME280;14785;52.556;13.430;2022-08-01T04:51:12;100526.03;;;20.42;100.00
27294;BME280;14785;52.556;13.430;2022-08-01T04:53:38;100524.34;;;20.47;100.00
27294;BME280;14785;52.556;13.430;2022-08-01T04:56:04;100523.66;;;20.34;100.00
27294;BME280;14785;52.556;13.430;2022-08-01T04:58:29;100528.47;;;20.50;100.00
27294;BME280;14785;52.556;13.430;2022-08-01T05:00:54;100528.75;;;20.60;100.00
27294;BME280;14785;52.556;13.430;2022-08-01T05:03:20;100530.09;;;20.51;100.00
27294;BME280;14785;52.556;13.430;2022-08-01T05:05:45;100529.16;;;20.21;100.00
27294;BME280;14785;52.556;13.430;2022-08-01T05:08:10;100541.63;;;20.22;100.00
27294;BME280;14785;52.556;13.430;2022-08-01T05:10:36;100538.84;;;20.04;100.00
27294;BME280;14785;52.556;13.430;2022-08-01T05:13:01;100542.56;;;20.03;100.00
27294;BME280;14785;52.556;13.430;2022-08-01T05:15:27;100547.09;;;20.15;100.00
27294;BME280;14785;52.556;13.430;2022-08-01T05:17:52;100543.81;;;20.07;100.00
27294;BME280;14785;52.556;13.430;2022-08-01T05:20:17;100546.25;;;20.15;100.00
27294;BME280;14785;52.556;13.430;2022-08-01T05:22:43;100552.94;;;20.06;100.00
27294;BME280;14785;52.556;13.430;2022-08-01T05:25:08;100550.16;;;19.88;100.00
27294;BME280;14785;52.556;13.430;2022-08-01T05:27:34;100549.72;;;19.91;100.00
27294;BME280;14785;52.556;13.430;2022-08-01T05:30:08;100550.53;;;19.98;100.00
27294;BME280;14785;52.556;13.430;2022-08-01T05:32:34;100548.38;;;20.06;100.00
27294;BME280;14785;52.556;13.430;2022-08-01T05:34:59;100551.00;;;19.88;100.00
27294;BME280;14785;52.556;13.430;2022-08-01T05:37:25;100545.16;;;19.91;100.00
27294;BME280;14785;52.556;13.430;2022-08-01T05:39:50;100541.63;;;19.91;100.00
27294;BME280;14785;52.556;13.430;2022-08-01T05:42:16;100547.16;;;20.27;100.00
27294;BME280;14785;52.556;13.430;2022-08-01T05:44:41;100549.69;;;19.97;100.00
27294;BME280;14785;52.556;13.430;2022-08-01T05:47:06;100552.44;;;20.22;100.00
27294;BME280;14785;52.556;13.430;2022-08-01T05:49:32;100548.06;;;20.21;100.00
27294;BME280;14785;52.556;13.430;2022-08-01T05:51:57;100549.94;;;20.63;100.00
27294;BME280;14785;52.556;13.430;2022-08-01T05:54:22;100558.72;;;20.09;100.00
27294;BME280;14785;52.556;13.430;2022-08-01T05:56:48;100561.03;;;20.06;100.00
27294;BME280;14785;52.556;13.430;2022-08-01T05:59:13;100558.28;;;20.19;100.00
27294;BME280;14785;52.556;13.430;2022-08-01T06:01:38;100554.13;;;20.16;100.00
27294;BME280;14785;52.556;13.430;2022-08-01T06:04:04;100562.78;;;20.25;100.00
27294;BME280;14785;52.556;13.430;2022-08-01T06:06:29;100568.13;;;20.31;100.00
27294;BME280;14785;52.556;13.430;2022-08-01T06:08:54;100567.31;;;20.31;100.00
27294;BME280;14785;52.556;13.430;2022-08-01T06:11:20;100566.28;;;20.50;100.00
27294;BME280;14785;52.556;13.430;2022-08-01T06:13:45;100560.06;;;20.49;100.00
27294;BME280;14785;52.556;13.430;2022-08-01T06:16:11;100578.22;;;20.18;100.00
27294;BME280;14785;52.556;13.430;2022-08-01T06:18:36;100574.03;;;20.22;100.00
27294;BME280;14785;52.556;13.430;2022-08-01T06:21:01;100575.06;;;20.45;100.00
27294;BME280;14785;52.556;13.430;2022-08-01T06:23:27;100571.22;;;20.35;100.00
27294;BME280;14785;52.556;13.430;2022-08-01T06:25:53;100562.53;;;20.51;100.00
27294;BME280;14785;52.556;13.430;2022-08-01T06:28:19;100570.66;;;20.69;100.00
27294;BME280;14785;52.556;13.430;2022-08-01T06:30:44;100572.63;;;20.80;100.00
27294;BME280;14785;52.556;13.430;2022-08-01T06:33:09;100568.94;;;20.74;100.00
27294;BME280;14785;52.556;13.430;2022-08-01T06:35:35;100565.56;;;20.79;100.00
27294;BME280;14785;52.556;13.430;2022-08-01T06:38:02;100560.34;;;21.02;100.00
27294;BME280;14785;52.556;13.430;2022-08-01T06:40:27;100560.03;;;21.28;100.00
27294;BME280;14785;52.556;13.430;2022-08-01T06:42:53;100560.66;;;21.71;100.00
27294;BME280;14785;52.556;13.430;2022-08-01T06:45:18;100548.00;;;21.83;100.00
27294;BME280;14785;52.556;13.430;2022-08-01T06:47:44;100551.91;;;21.99;100.00
27294;BME280;14785;52.556;13.430;2022-08-01T06:50:10;100555.69;;;21.68;100.00
27294;BME280;14785;52.556;13.430;2022-08-01T06:52:36;100554.50;;;21.64;100.00
27294;BME280;14785;52.556;13.430;2022-08-01T06:55:02;100550.09;;;21.81;100.00
27294;BME280;14785;52.556;13.430;2022-08-01T06:57:28;100551.88;;;21.76;100.00
27294;BME280;14785;52.556;13.430;2022-08-01T06:59:54;100543.31;;;21.90;100.00
27294;BME280;14785;52.556;13.430;2022-08-01T07:02:20;100560.09;;;21.51;100.00
27294;BME280;14785;52.556;13.430;2022-08-01T07:04:45;100555.28;;;21.53;100.00
27294;BME280;14785;52.556;13.430;2022-08-01T07:07:11;100557.63;;;21.79;100.00
27294;BME280;14785;52.556;13.430;2022-08-01T07:09:36;100553.75;;;21.75;100.00
27294;BME280;14785;52.556;13.430;2022-08-01T07:12:03;100548.72;;;21.90;100.00
27294;BME280;14785;52.556;13.430;2022-08-01T07:14:28;100548.97;;;22.00;100.00
27294;BME280;14785;52.556;13.430;2022-08-01T07:16:54;100554.41;;;21.41;100.00
27294;BME280;14785;52.556;13.430;2022-08-01T07:19:19;100567.34;;;21.39;100.00
27294;BME280;14785;52.556;13.430;2022-08-01T07:21:44;100565.75;;;21.79;100.00
27294;BME280;14785;52.556;13.430;2022-08-01T07:24:12;100558.22;;;21.81;100.00
27294;BME280;14785;52.556;13.430;2022-08-01T07:26:38;100555.31;;;21.94;100.00
27294;BME280;14785;52.556;13.430;2022-08-01T07:29:03;100561.91;;;21.69;100.00
27294;BME280;14785;52.556;13.430;2022-08-01T07:31:29;100558.00;;;21.53;100.00
27294;BME280;14785;52.556;13.430;2022-08-01T07:33:54;100563.69;;;21.63;100.00
27294;BME280;14785;52.556;13.430;2022-08-01T07:36:19;100563.19;;;21.96;100.00
27294;BME280;14785;52.556;13.430;2022-08-01T07:38:45;100581.94;;;21.38;100.00
27294;BME280;14785;52.556;13.430;2022-08-01T07:41:11;100579.31;;;21.14;100.00
27294;BME280;14785;52.556;13.430;2022-08-01T07:43:36;100571.50;;;21.42;100.00
27294;BME280;14785;52.556;13.430;2022-08-01T07:46:02;100575.22;;;21.70;100.00
27294;BME280;14785;52.556;13.430;2022-08-01T07:48:28;100569.38;;;21.44;100.00
27294;BME280;14785;52.556;13.430;2022-08-01T07:50:54;100576.72;;;21.55;100.00
27294;BME280;14785;52.556;13.430;2022-08-01T07:53:19;100573.59;;;21.69;100.00
27294;BME280;14785;52.556;13.430;2022-08-01T07:55:44;100582.03;;;21.61;100.00
27294;BME280;14785;52.556;13.430;2022-08-01T07:58:10;100573.78;;;21.56;100.00
27294;BME280;14785;52.556;13.430;2022-08-01T08:00:35;100576.66;;;22.02;100.00
27294;BME280;14785;52.556;13.430;2022-08-01T08:03:01;100580.59;;;22.29;100.00
27294;BME280;14785;52.556;13.430;2022-08-01T08:05:26;100569.22;;;22.09;100.00
27294;BME280;14785;52.556;13.430;2022-08-01T08:07:52;100563.44;;;21.94;100.00
27294;BME280;14785;52.556;13.430;2022-08-01T08:10:18;100584.19;;;21.41;100.00
27294;BME280;14785;52.556;13.430;2022-08-01T08:12:45;100581.28;;;21.54;100.00
27294;BME280;14785;52.556;13.430;2022-08-01T08:15:12;100580.31;;;21.37;100.00
27294;BME280;14785;52.556;13.430;2022-08-01T08:17:37;100579.84;;;21.40;100.00
27294;BME280;14785;52.556;13.430;2022-08-01T08:20:04;100575.09;;;21.83;100.00
27294;BME280;14785;52.556;13.430;2022-08-01T08:22:30;100591.41;;;21.47;100.00
27294;BME280;14785;52.556;13.430;2022-08-01T08:24:55;100592.03;;;21.31;100.00
27294;BME280;14785;52.556;13.430;2022-08-01T08:27:21;100591.47;;;21.41;100.00
27294;BME280;14785;52.556;13.430;2022-08-01T08:29:46;100589.19;;;21.85;100.00
27294;BME280;14785;52.556;13.430;2022-08-01T08:32:11;100585.72;;;21.96;100.00
27294;BME280;14785;52.556;13.430;2022-08-01T08:34:37;100578.56;;;22.25;100.00
27294;BME280;14785;52.556;13.430;2022-08-01T08:37:02;100574.41;;;21.99;100.00
27294;BME280;14785;52.556;13.430;2022-08-01T08:39:28;100580.28;;;21.85;100.00
27294;BME280;14785;52.556;13.430;2022-08-01T08:41:54;100584.78;;;22.02;100.00
27294;BME280;14785;52.556;13.430;2022-08-01T08:44:20;100580.53;;;22.06;100.00
27294;BME280;14785;52.556;13.430;2022-08-01T08:46:49;100585.03;;;22.12;100.00
27294;BME280;14785;52.556;13.430;2022-08-01T08:49:22;100576.56;;;22.09;100.00
27294;BME280;14785;52.556;13.430;2022-08-01T08:51:50;100592.75;;;21.97;100.00
27294;BME280;14785;52.556;13.430;2022-08-01T08:54:17;100586.63;;;21.90;100.00
27294;BME280;14785;52.556;13.430;2022-08-01T08:56:43;100585.50;;;22.09;100.00
27294;BME280;14785;52.556;13.430;2022-08-01T08:59:11;100580.81;;;22.39;100.00
27294;BME280;14785;52.556;13.430;2022-08-01T09:01:38;100575.53;;;22.68;100.00
27294;BME280;14785;52.556;13.430;2022-08-01T09:04:03;100581.78;;;22.80;100.00
27294;BME280;14785;52.556;13.430;2022-08-01T09:06:30;100588.59;;;22.94;100.00
27294;BME280;14785;52.556;13.430;2022-08-01T09:08:56;100578.50;;;23.40;100.00
27294;BME280;14785;52.556;13.430;2022-08-01T09:11:22;100576.59;;;23.69;100.00
27294;BME280;14785;52.556;13.430;2022-08-01T09:14:08;100571.25;;;24.02;100.00
27294;BME280;14785;52.556;13.430;2022-08-01T09:16:35;100559.38;;;24.08;100.00
27294;BME280;14785;52.556;13.430;2022-08-01T09:19:10;100563.50;;;24.44;100.00
27294;BME280;14785;52.556;13.430;2022-08-01T09:21:36;100565.47;;;24.15;100.00
27294;BME280;14785;52.556;13.430;2022-08-01T09:24:02;100577.91;;;23.83;100.00
27294;BME280;14785;52.556;13.430;2022-08-01T09:26:35;100581.59;;;23.60;100.00
27294;BME280;14785;52.556;13.430;2022-08-01T09:29:06;100583.66;;;23.98;100.00
27294;BME280;14785;52.556;13.430;2022-08-01T09:31:42;100597.50;;;23.17;100.00
27294;BME280;14785;52.556;13.430;2022-08-01T09:34:08;100602.97;;;23.29;100.00
27294;BME280;14785;52.556;13.430;2022-08-01T09:36:54;100607.72;;;22.99;100.00
27294;BME280;14785;52.556;13.430;2022-08-01T09:39:31;100608.75;;;23.09;100.00
27294;BME280;14785;52.556;13.430;2022-08-01T09:42:00;100605.72;;;22.94;100.00
27294;BME280;14785;52.556;13.430;2022-08-01T09:44:41;100613.94;;;22.41;100.00
27294;BME280;14785;52.556;13.430;2022-08-01T09:47:07;100618.19;;;22.49;100.00
27294;BME280;14785;52.556;13.430;2022-08-01T09:49:34;100627.53;;;22.88;100.00
27294;BME280;14785;52.556;13.430;2022-08-01T09:52:17;100620.22;;;22.77;100.00
27294;BME280;14785;52.556;13.430;2022-08-01T09:54:54;100631.53;;;22.74;100.00
27294;BME280;14785;52.556;13.430;2022-08-01T09:57:20;100629.44;;;22.64;100.00
27294;BME280;14785;52.556;13.430;2022-08-01T09:59:48;100636.63;;;22.59;100.00
27294;BME280;14785;52.556;13.430;2022-08-01T10:02:27;100623.25;;;22.34;100.00
27294;BME280;14785;52.556;13.430;2022-08-01T10:04:53;100636.38;;;22.07;100.00
27294;BME280;14785;52.556;13.430;2022-08-01T10:07:19;100648.63;;;22.86;100.00
27294;BME280;14785;52.556;13.430;2022-08-01T10:09:46;100640.47;;;23.09;100.00
27294;BME280;14785;52.556;13.430;2022-08-01T10:12:14;100636.69;;;23.10;100.00
27294;BME280;14785;52.556;13.430;2022-08-01T10:14:42;100641.91;;;22.53;100.00
27294;BME280;14785;52.556;13.430;2022-08-01T10:17:10;100636.03;;;22.57;100.00
27294;BME280;14785;52.556;13.430;2022-08-01T10:19:38;100644.47;;;22.48;100.00
27294;BME280;14785;52.556;13.430;2022-08-01T10:22:08;100653.03;;;22.22;100.00
27294;BME280;14785;52.556;13.430;2022-08-01T10:24:37;100641.28;;;22.40;100.00
27294;BME280;14785;52.556;13.430;2022-08-01T10:27:06;100660.06;;;22.12;100.00
27294;BME280;14785;52.556;13.430;2022-08-01T10:29:35;100669.06;;;21.94;100.00
27294;BME280;14785;52.556;13.430;2022-08-01T10:32:04;100670.78;;;22.07;100.00
27294;BME280;14785;52.556;13.430;2022-08-01T10:34:31;100678.09;;;21.88;100.00
27294;BME280;14785;52.556;13.430;2022-08-01T10:36:57;100670.41;;;22.03;100.00
27294;BME280;14785;52.556;13.430;2022-08-01T10:39:22;100663.53;;;22.30;100.00
27294;BME280;14785;52.556;13.430;2022-08-01T10:41:49;100675.50;;;22.11;100.00
27294;BME280;14785;52.556;13.430;2022-08-01T10:44:15;100668.28;;;22.46;100.00
27294;BME280;14785;52.556;13.430;2022-08-01T10:46:45;100656.22;;;21.90;100.00
27294;BME280;14785;52.556;13.430;2022-08-01T10:49:14;100682.25;;;21.73;100.00
27294;BME280;14785;52.556;13.430;2022-08-01T10:51:41;100661.75;;;21.83;100.00
27294;BME280;14785;52.556;13.430;2022-08-01T10:54:09;100654.09;;;21.92;100.00
27294;BME280;14785;52.556;13.430;2022-08-01T10:56:46;100676.50;;;21.99;100.00
27294;BME280;14785;52.556;13.430;2022-08-01T10:59:29;100659.00;;;22.13;100.00
27294;BME280;14785;52.556;13.430;2022-08-01T11:02:00;100658.41;;;22.64;100.00
27294;BME280;14785;52.556;13.430;2022-08-01T11:04:51;100655.09;;;22.62;100.00
27294;BME280;14785;52.556;13.430;2022-08-01T11:07:24;100657.97;;;22.90;100.00
27294;BME280;14785;52.556;13.430;2022-08-01T11:10:15;100653.19;;;23.43;100.00
27294;BME280;14785;52.556;13.430;2022-08-01T11:12:44;100653.94;;;23.15;100.00
27294;BME280;14785;52.556;13.430;2022-08-01T11:17:44;100663.13;;;22.80;100.00
27294;BME280;14785;52.556;13.430;2022-08-01T11:20:22;100667.38;;;22.87;100.00
27294;BME280;14785;52.556;13.430;2022-08-01T11:30:53;100718.63;;;21.05;100.00
27294;BME280;14785;52.556;13.430;2022-08-01T11:41:22;100754.84;;;21.28;100.00
27294;BME280;14785;52.556;13.430;2022-08-01T11:44:09;100747.88;;;21.14;100.00
27294;BME280;14785;52.556;13.430;2022-08-01T11:49:44;100733.50;;;21.56;100.00
27294;BME280;14785;52.556;13.430;2022-08-01T11:54:41;100724.81;;;22.31;100.00
27294;BME280;14785;52.556;13.430;2022-08-01T11:57:13;100716.34;;;22.39;100.00
27294;BME280;14785;52.556;13.430;2022-08-01T11:59:44;100716.63;;;22.49;100.00
27294;BME280;14785;52.556;13.430;2022-08-01T12:02:19;100706.06;;;22.60;100.00
27294;BME280;14785;52.556;13.430;2022-08-01T12:04:50;100704.81;;;22.44;100.00
27294;BME280;14785;52.556;13.430;2022-08-01T12:07:16;100694.53;;;22.99;100.00
27294;BME280;14785;52.556;13.430;2022-08-01T12:09:42;100697.31;;;22.58;100.00
27294;BME280;14785;52.556;13.430;2022-08-01T12:12:08;100699.34;;;23.08;100.00
27294;BME280;14785;52.556;13.430;2022-08-01T12:14:34;100699.84;;;23.28;100.00
27294;BME280;14785;52.556;13.430;2022-08-01T12:16:59;100709.25;;;22.80;100.00
27294;BME280;14785;52.556;13.430;2022-08-01T12:19:25;100715.13;;;22.65;100.00
27294;BME280;14785;52.556;13.430;2022-08-01T12:22:11;100738.16;;;22.44;100.00
27294;BME280;14785;52.556;13.430;2022-08-01T12:24:38;100737.63;;;21.95;100.00
27294;BME280;14785;52.556;13.430;2022-08-01T12:27:05;100747.03;;;21.92;100.00
27294;BME280;14785;52.556;13.430;2022-08-01T12:32:03;100748.19;;;22.14;100.00
27294;BME280;14785;52.556;13.430;2022-08-01T12:34:29;100747.03;;;22.51;100.00
27294;BME280;14785;52.556;13.430;2022-08-01T12:36:59;100748.25;;;22.56;100.00
27294;BME280;14785;52.556;13.430;2022-08-01T12:39:31;100733.41;;;22.70;100.00
27294;BME280;14785;52.556;13.430;2022-08-01T12:41:56;100726.25;;;22.98;100.00
27294;BME280;14785;52.556;13.430;2022-08-01T12:44:22;100725.47;;;23.83;100.00
27294;BME280;14785;52.556;13.430;2022-08-01T12:46:47;100722.91;;;24.33;100.00
27294;BME280;14785;52.556;13.430;2022-08-01T12:49:13;100706.94;;;25.19;100.00
27294;BME280;14785;52.556;13.430;2022-08-01T12:51:38;100707.59;;;25.64;100.00
27294;BME280;14785;52.556;13.430;2022-08-01T12:54:04;100691.94;;;26.25;100.00
27294;BME280;14785;52.556;13.430;2022-08-01T12:56:33;100692.63;;;27.00;100.00
27294;BME280;14785;52.556;13.430;2022-08-01T12:58:59;100685.16;;;27.27;100.00
27294;BME280;14785;52.556;13.430;2022-08-01T13:01:26;100676.28;;;27.10;100.00
27294;BME280;14785;52.556;13.430;2022-08-01T13:04:03;100677.38;;;25.66;100.00